sensor_id;sensor_type;location;lat;lon;timestamp;temperature;humidity
28175;SHT30;59417;44.788;10.334;2023-04-03T00:00:32;12.27;59.44
28175;SHT30;59417;44.788;10.334;2023-04-03T00:03:01;12.31;59.83
28175;SHT30;59417;44.788;10.334;2023-04-03T00:05:30;12.39;59.40
28175;SHT30;59417;44.788;10.334;2023-04-03T00:07:59;12.45;58.88
28175;SHT30;59417;44.788;10.334;2023-04-03T00:10:28;12.48;59.84
28175;SHT30;59417;44.788;10.334;2023-04-03T00:12:57;12.22;60.03
28175;SHT30;59417;44.788;10.334;2023-04-03T00:15:25;12.31;59.87
28175;SHT30;59417;44.788;10.334;2023-04-03T00:17:53;12.38;59.90
28175;SHT30;59417;44.788;10.334;2023-04-03T00:20:39;12.48;59.45
28175;SHT30;59417;44.788;10.334;2023-04-03T00:23:08;12.53;59.51
28175;SHT30;59417;44.788;10.334;2023-04-03T00:25:35;12.46;60.28
28175;SHT30;59417;44.788;10.334;2023-04-03T00:28:04;12.34;60.25
28175;SHT30;59417;44.788;10.334;2023-04-03T00:30:32;12.18;60.64
28175;SHT30;59417;44.788;10.334;2023-04-03T00:33:00;12.02;61.28
28175;SHT30;59417;44.788;10.334;2023-04-03T00:35:28;12.02;61.32
28175;SHT30;59417;44.788;10.334;2023-04-03T00:37:56;12.24;60.45
28175;SHT30;59417;44.788;10.334;2023-04-03T00:40:25;12.39;60.13
28175;SHT30;59417;44.788;10.334;2023-04-03T00:42:58;12.56;59.08
28175;SHT30;59417;44.788;10.334;2023-04-03T00:45:35;12.51;59.28
28175;SHT30;59417;44.788;10.334;2023-04-03T00:48:04;12.44;59.39
28175;SHT30;59417;44.788;10.334;2023-04-03T00:50:33;12.45;59.45
28175;SHT30;59417;44.788;10.334;2023-04-03T00:53:00;12.28;60.01
28175;SHT30;59417;44.788;10.334;2023-04-03T00:55:33;12.29;60.02
28175;SHT30;59417;44.788;10.334;2023-04-03T00:58:02;12.35;59.88
28175;SHT30;59417;44.788;10.334;2023-04-03T01:00:28;12.41;59.64
28175;SHT30;59417;44.788;10.334;2023-04-03T01:03:00;12.39;60.22
28175;SHT30;59417;44.788;10.334;2023-04-03T01:05:28;12.45;60.52
28175;SHT30;59417;44.788;10.334;2023-04-03T01:07:53;12.49;60.23
28175;SHT30;59417;44.788;10.334;2023-04-03T01:10:25;12.39;61.22
28175;SHT30;59417;44.788;10.334;2023-04-03T01:12:54;12.44;59.60
28175;SHT30;59417;44.788;10.334;2023-04-03T01:15:26;12.45;59.86
28175;SHT30;59417;44.788;10.334;2023-04-03T01:18:17;12.37;60.24
28175;SHT30;59417;44.788;10.334;2023-04-03T01:20:50;12.39;60.49
28175;SHT30;59417;44.788;10.334;2023-04-03T01:23:27;12.51;60.27
28175;SHT30;59417;44.788;10.334;2023-04-03T01:25:56;12.60;59.85
28175;SHT30;59417;44.788;10.334;2023-04-03T01:28:29;12.70;60.20
28175;SHT30;59417;44.788;10.334;2023-04-03T01:33:32;12.35;60.54
28175;SHT30;59417;44.788;10.334;2023-04-03T01:36:24;12.39;60.22
28175;SHT30;59417;44.788;10.334;2023-04-03T01:38:51;12.38;60.24
28175;SHT30;59417;44.788;10.334;2023-04-03T01:41:17;12.29;60.66
28175;SHT30;59417;44.788;10.334;2023-04-03T01:43:45;12.25;60.89
28175;SHT30;59417;44.788;10.334;2023-04-03T01:46:10;12.28;60.79
28175;SHT30;59417;44.788;10.334;2023-04-03T01:48:37;12.14;61.21
28175;SHT30;59417;44.788;10.334;2023-04-03T01:51:05;12.14;61.73
28175;SHT30;59417;44.788;10.334;2023-04-03T01:53:32;12.08;61.51
28175;SHT30;59417;44.788;10.334;2023-04-03T01:55:58;12.08;61.54
28175;SHT30;59417;44.788;10.334;2023-04-03T01:58:27;12.02;62.30
28175;SHT30;59417;44.788;10.334;2023-04-03T02:00:57;11.97;62.03
28175;SHT30;59417;44.788;10.334;2023-04-03T02:03:25;11.88;62.39
28175;SHT30;59417;44.788;10.334;2023-04-03T02:05:54;11.84;62.43
28175;SHT30;59417;44.788;10.334;2023-04-03T02:08:20;11.87;62.49
28175;SHT30;59417;44.788;10.334;2023-04-03T02:10:50;11.86;62.46
28175;SHT30;59417;44.788;10.334;2023-04-03T02:13:16;11.83;62.56
28175;SHT30;59417;44.788;10.334;2023-04-03T02:15:43;11.81;62.66
28175;SHT30;59417;44.788;10.334;2023-04-03T02:18:11;11.63;63.05
28175;SHT30;59417;44.788;10.334;2023-04-03T02:20:36;11.66;62.87
28175;SHT30;59417;44.788;10.334;2023-04-03T02:23:02;11.66;62.91
28175;SHT30;59417;44.788;10.334;2023-04-03T02:25:30;11.62;62.93
28175;SHT30;59417;44.788;10.334;2023-04-03T02:27:56;11.67;62.62
28175;SHT30;59417;44.788;10.334;2023-04-03T02:30:21;11.62;62.80
28175;SHT30;59417;44.788;10.334;2023-04-03T02:32:48;11.60;62.65
28175;SHT30;59417;44.788;10.334;2023-04-03T02:35:13;11.63;62.67
28175;SHT30;59417;44.788;10.334;2023-04-03T02:37:39;11.60;62.92
28175;SHT30;59417;44.788;10.334;2023-04-03T02:40:06;11.59;62.68
28175;SHT30;59417;44.788;10.334;2023-04-03T02:42:32;11.64;62.43
28175;SHT30;59417;44.788;10.334;2023-04-03T02:44:58;11.63;62.62
28175;SHT30;59417;44.788;10.334;2023-04-03T02:47:27;11.63;62.26
28175;SHT30;59417;44.788;10.334;2023-04-03T02:49:53;11.67;62.31
28175;SHT30;59417;44.788;10.334;2023-04-03T02:52:19;11.62;62.74
28175;SHT30;59417;44.788;10.334;2023-04-03T02:54:46;11.71;62.42
28175;SHT30;59417;44.788;10.334;2023-04-03T02:57:12;11.62;62.84
28175;SHT30;59417;44.788;10.334;2023-04-03T02:59:38;11.56;62.87
28175;SHT30;59417;44.788;10.334;2023-04-03T03:02:08;11.56;63.12
28175;SHT30;59417;44.788;10.334;2023-04-03T03:04:34;11.56;62.55
28175;SHT30;59417;44.788;10.334;2023-04-03T03:07:00;11.60;62.12
28175;SHT30;59417;44.788;10.334;2023-04-03T03:09:27;11.50;62.59
28175;SHT30;59417;44.788;10.334;2023-04-03T03:11:55;11.50;62.46
28175;SHT30;59417;44.788;10.334;2023-04-03T03:14:21;11.40;62.85
28175;SHT30;59417;44.788;10.334;2023-04-03T03:16:47;11.38;63.10
28175;SHT30;59417;44.788;10.334;2023-04-03T03:19:12;11.42;62.94
28175;SHT30;59417;44.788;10.334;2023-04-03T03:21:38;11.36;63.04
28175;SHT30;59417;44.788;10.334;2023-04-03T03:24:04;11.49;62.70
28175;SHT30;59417;44.788;10.334;2023-04-03T03:26:32;11.47;62.61
28175;SHT30;59417;44.788;10.334;2023-04-03T03:28:57;11.39;62.87
28175;SHT30;59417;44.788;10.334;2023-04-03T03:31:23;11.47;63.74
28175;SHT30;59417;44.788;10.334;2023-04-03T03:33:49;11.43;63.61
28175;SHT30;59417;44.788;10.334;2023-04-03T03:36:14;11.47;63.76
28175;SHT30;59417;44.788;10.334;2023-04-03T03:38:40;11.46;63.88
28175;SHT30;59417;44.788;10.334;2023-04-03T03:41:06;11.30;64.90
28175;SHT30;59417;44.788;10.334;2023-04-03T03:43:33;11.46;63.06
28175;SHT30;59417;44.788;10.334;2023-04-03T03:45:59;11.36;63.29
28175;SHT30;59417;44.788;10.334;2023-04-03T03:48:26;11.27;63.52
28175;SHT30;59417;44.788;10.334;2023-04-03T03:50:51;11.22;63.81
28175;SHT30;59417;44.788;10.334;2023-04-03T03:53:20;11.13;64.07
28175;SHT30;59417;44.788;10.334;2023-04-03T03:55:48;11.25;64.07
28175;SHT30;59417;44.788;10.334;2023-04-03T03:58:14;11.38;63.93
28175;SHT30;59417;44.788;10.334;2023-04-03T04:00:41;11.52;63.47
28175;SHT30;59417;44.788;10.334;2023-04-03T04:03:07;11.55;63.00
28175;SHT30;59417;44.788;10.334;2023-04-03T04:05:32;11.52;63.93
28175;SHT30;59417;44.788;10.334;2023-04-03T04:08:00;11.05;65.19
28175;SHT30;59417;44.788;10.334;2023-04-03T04:10:26;11.01;65.70
28175;SHT30;59417;44.788;10.334;2023-04-03T04:12:52;11.01;65.52
28175;SHT30;59417;44.788;10.334;2023-04-03T04:15:21;11.20;64.17
28175;SHT30;59417;44.788;10.334;2023-04-03T04:17:48;11.05;64.63
28175;SHT30;59417;44.788;10.334;2023-04-03T04:20:14;10.94;64.96
28175;SHT30;59417;44.788;10.334;2023-04-03T04:22:41;10.87;65.34
28175;SHT30;59417;44.788;10.334;2023-04-03T04:25:08;10.87;65.24
28175;SHT30;59417;44.788;10.334;2023-04-03T04:27:35;10.89;64.74
28175;SHT30;59417;44.788;10.334;2023-04-03T04:30:03;10.84;64.97
28175;SHT30;59417;44.788;10.334;2023-04-03T04:32:30;10.82;65.29
28175;SHT30;59417;44.788;10.334;2023-04-03T04:34:56;10.80;65.77
28175;SHT30;59417;44.788;10.334;2023-04-03T04:37:22;10.82;65.57
28175;SHT30;59417;44.788;10.334;2023-04-03T04:39:47;10.88;65.20
28175;SHT30;59417;44.788;10.334;2023-04-03T04:42:14;10.98;64.85
28175;SHT30;59417;44.788;10.334;2023-04-03T04:44:40;11.01;64.74
28175;SHT30;59417;44.788;10.334;2023-04-03T04:47:07;10.81;65.35
28175;SHT30;59417;44.788;10.334;2023-04-03T04:49:33;10.80;65.44
28175;SHT30;59417;44.788;10.334;2023-04-03T04:51:59;10.81;65.25
28175;SHT30;59417;44.788;10.334;2023-04-03T04:54:29;10.65;65.34
28175;SHT30;59417;44.788;10.334;2023-04-03T04:56:54;10.75;64.88
28175;SHT30;59417;44.788;10.334;2023-04-03T04:59:21;10.65;65.72
28175;SHT30;59417;44.788;10.334;2023-04-03T05:01:47;10.75;65.28
28175;SHT30;59417;44.788;10.334;2023-04-03T05:04:15;10.48;65.96
28175;SHT30;59417;44.788;10.334;2023-04-03T05:06:42;10.57;65.75
28175;SHT30;59417;44.788;10.334;2023-04-03T05:09:13;10.48;65.84
28175;SHT30;59417;44.788;10.334;2023-04-03T05:11:41;10.48;65.68
28175;SHT30;59417;44.788;10.334;2023-04-03T05:14:07;10.56;65.71
28175;SHT30;59417;44.788;10.334;2023-04-03T05:16:34;10.50;65.83
28175;SHT30;59417;44.788;10.334;2023-04-03T05:19:00;10.43;65.93
28175;SHT30;59417;44.788;10.334;2023-04-03T05:21:26;10.45;66.07
28175;SHT30;59417;44.788;10.334;2023-04-03T05:23:54;10.64;65.55
28175;SHT30;59417;44.788;10.334;2023-04-03T05:26:20;10.61;65.37
28175;SHT30;59417;44.788;10.334;2023-04-03T05:28:48;10.54;65.33
28175;SHT30;59417;44.788;10.334;2023-04-03T05:31:15;10.59;65.18
28175;SHT30;59417;44.788;10.334;2023-04-03T05:33:41;10.71;64.62
28175;SHT30;59417;44.788;10.334;2023-04-03T05:36:11;10.77;64.56
28175;SHT30;59417;44.788;10.334;2023-04-03T05:38:42;10.91;64.39
28175;SHT30;59417;44.788;10.334;2023-04-03T05:41:08;11.05;63.94
28175;SHT30;59417;44.788;10.334;2023-04-03T05:43:34;10.92;63.97
28175;SHT30;59417;44.788;10.334;2023-04-03T05:46:03;10.87;64.38
28175;SHT30;59417;44.788;10.334;2023-04-03T05:48:30;10.87;64.55
28175;SHT30;59417;44.788;10.334;2023-04-03T05:50:56;10.81;64.88
28175;SHT30;59417;44.788;10.334;2023-04-03T05:53:27;10.99;64.14
28175;SHT30;59417;44.788;10.334;2023-04-03T05:55:55;11.04;64.24
28175;SHT30;59417;44.788;10.334;2023-04-03T05:58:22;10.99;64.64
28175;SHT30;59417;44.788;10.334;2023-04-03T06:00:50;11.05;64.47
28175;SHT30;59417;44.788;10.334;2023-04-03T06:03:16;11.20;64.10
28175;SHT30;59417;44.788;10.334;2023-04-03T06:05:42;11.26;64.05
28175;SHT30;59417;44.788;10.334;2023-04-03T06:08:10;11.25;64.47
28175;SHT30;59417;44.788;10.334;2023-04-03T06:10:36;11.38;64.14
28175;SHT30;59417;44.788;10.334;2023-04-03T06:13:02;11.39;63.77
28175;SHT30;59417;44.788;10.334;2023-04-03T06:15:28;11.43;63.99
28175;SHT30;59417;44.788;10.334;2023-04-03T06:17:54;11.23;64.36
28175;SHT30;59417;44.788;10.334;2023-04-03T06:20:20;11.16;65.28
28175;SHT30;59417;44.788;10.334;2023-04-03T06:22:47;10.91;64.91
28175;SHT30;59417;44.788;10.334;2023-04-03T06:25:13;10.92;65.28
28175;SHT30;59417;44.788;10.334;2023-04-03T06:27:39;11.04;65.82
28175;SHT30;59417;44.788;10.334;2023-04-03T06:30:06;11.13;64.77
28175;SHT30;59417;44.788;10.334;2023-04-03T06:32:32;11.20;65.21
28175;SHT30;59417;44.788;10.334;2023-04-03T06:34:58;11.29;65.61
28175;SHT30;59417;44.788;10.334;2023-04-03T06:37:24;11.43;64.31
28175;SHT30;59417;44.788;10.334;2023-04-03T06:39:54;11.40;64.91
28175;SHT30;59417;44.788;10.334;2023-04-03T06:42:20;11.46;64.58
28175;SHT30;59417;44.788;10.334;2023-04-03T06:44:54;11.67;63.99
28175;SHT30;59417;44.788;10.334;2023-04-03T06:47:20;11.55;65.13
28175;SHT30;59417;44.788;10.334;2023-04-03T06:49:45;11.62;65.46
28175;SHT30;59417;44.788;10.334;2023-04-03T06:52:11;11.86;64.40
28175;SHT30;59417;44.788;10.334;2023-04-03T06:54:39;11.77;65.17
28175;SHT30;59417;44.788;10.334;2023-04-03T06:57:05;11.87;64.92
28175;SHT30;59417;44.788;10.334;2023-04-03T06:59:31;11.86;65.70
28175;SHT30;59417;44.788;10.334;2023-04-03T07:01:56;11.97;65.93
28175;SHT30;59417;44.788;10.334;2023-04-03T07:04:23;12.18;65.67
28175;SHT30;59417;44.788;10.334;2023-04-03T07:06:50;12.37;65.33
28175;SHT30;59417;44.788;10.334;2023-04-03T07:09:16;12.48;65.26
28175;SHT30;59417;44.788;10.334;2023-04-03T07:11:41;12.73;65.87
28175;SHT30;59417;44.788;10.334;2023-04-03T07:14:07;12.87;65.50
28175;SHT30;59417;44.788;10.334;2023-04-03T07:16:34;13.07;65.06
28175;SHT30;59417;44.788;10.334;2023-04-03T07:19:01;13.27;64.58
28175;SHT30;59417;44.788;10.334;2023-04-03T07:21:28;13.45;64.21
28175;SHT30;59417;44.788;10.334;2023-04-03T07:23:54;13.50;64.55
28175;SHT30;59417;44.788;10.334;2023-04-03T07:26:21;13.57;64.76
28175;SHT30;59417;44.788;10.334;2023-04-03T07:28:47;13.71;64.18
28175;SHT30;59417;44.788;10.334;2023-04-03T07:31:15;13.85;64.00
28175;SHT30;59417;44.788;10.334;2023-04-03T07:33:43;13.96;63.60
28175;SHT30;59417;44.788;10.334;2023-04-03T07:36:10;14.09;63.50
28175;SHT30;59417;44.788;10.334;2023-04-03T07:38:39;14.27;63.85
28175;SHT30;59417;44.788;10.334;2023-04-03T07:41:05;14.39;63.13
28175;SHT30;59417;44.788;10.334;2023-04-03T07:43:31;14.34;63.86
28175;SHT30;59417;44.788;10.334;2023-04-03T07:45:56;14.52;63.66
28175;SHT30;59417;44.788;10.334;2023-04-03T07:48:24;14.61;63.58
28175;SHT30;59417;44.788;10.334;2023-04-03T07:50:50;14.73;62.97
28175;SHT30;59417;44.788;10.334;2023-04-03T07:53:16;14.74;63.07
28175;SHT30;59417;44.788;10.334;2023-04-03T07:55:42;14.71;63.11
28175;SHT30;59417;44.788;10.334;2023-04-03T07:58:17;14.87;62.81
28175;SHT30;59417;44.788;10.334;2023-04-03T08:00:43;14.78;62.83
28175;SHT30;59417;44.788;10.334;2023-04-03T08:03:10;14.91;63.20
28175;SHT30;59417;44.788;10.334;2023-04-03T08:05:46;14.98;63.32
28175;SHT30;59417;44.788;10.334;2023-04-03T08:08:15;15.02;63.62
28175;SHT30;59417;44.788;10.334;2023-04-03T08:10:42;15.12;63.68
28175;SHT30;59417;44.788;10.334;2023-04-03T08:13:08;15.18;62.67
28175;SHT30;59417;44.788;10.334;2023-04-03T08:15:35;15.28;63.31
28175;SHT30;59417;44.788;10.334;2023-04-03T08:18:01;15.34;63.10
28175;SHT30;59417;44.788;10.334;2023-04-03T08:20:27;15.32;63.25
28175;SHT30;59417;44.788;10.334;2023-04-03T08:22:54;15.43;63.46
28175;SHT30;59417;44.788;10.334;2023-04-03T08:25:19;15.42;63.24
28175;SHT30;59417;44.788;10.334;2023-04-03T08:27:45;15.59;63.02
28175;SHT30;59417;44.788;10.334;2023-04-03T08:30:11;15.62;63.38
28175;SHT30;59417;44.788;10.334;2023-04-03T08:32:38;15.74;63.52
28175;SHT30;59417;44.788;10.334;2023-04-03T08:35:04;15.87;62.77
28175;SHT30;59417;44.788;10.334;2023-04-03T08:37:30;15.73;63.22
28175;SHT30;59417;44.788;10.334;2023-04-03T08:39:55;15.76;63.52
28175;SHT30;59417;44.788;10.334;2023-04-03T08:45:00;16.17;63.41
28175;SHT30;59417;44.788;10.334;2023-04-03T08:47:38;16.21;63.36
28175;SHT30;59417;44.788;10.334;2023-04-03T08:50:17;16.38;63.55
28175;SHT30;59417;44.788;10.334;2023-04-03T08:52:57;16.47;62.55
28175;SHT30;59417;44.788;10.334;2023-04-03T08:55:34;16.54;62.71
28175;SHT30;59417;44.788;10.334;2023-04-03T09:00:31;16.35;63.00
28175;SHT30;59417;44.788;10.334;2023-04-03T09:02:58;16.47;63.24
28175;SHT30;59417;44.788;10.334;2023-04-03T09:05:58;16.61;63.22
28175;SHT30;59417;44.788;10.334;2023-04-03T09:11:06;16.76;61.71
28175;SHT30;59417;44.788;10.334;2023-04-03T09:18:53;16.88;62.34
28175;SHT30;59417;44.788;10.334;2023-04-03T09:21:30;16.94;62.26
28175;SHT30;59417;44.788;10.334;2023-04-03T09:23:59;17.00;62.06
28175;SHT30;59417;44.788;10.334;2023-04-03T09:26:31;17.12;61.46
28175;SHT30;59417;44.788;10.334;2023-04-03T09:29:02;17.20;61.51
28175;SHT30;59417;44.788;10.334;2023-04-03T09:31:37;17.29;60.94
28175;SHT30;59417;44.788;10.334;2023-04-03T09:34:07;17.40;60.51
28175;SHT30;59417;44.788;10.334;2023-04-03T09:36:54;17.51;60.71
28175;SHT30;59417;44.788;10.334;2023-04-03T09:39:23;17.54;60.03
28175;SHT30;59417;44.788;10.334;2023-04-03T09:41:59;17.61;60.28
28175;SHT30;59417;44.788;10.334;2023-04-03T09:44:33;17.54;60.42
28175;SHT30;59417;44.788;10.334;2023-04-03T09:46:59;17.44;59.03
28175;SHT30;59417;44.788;10.334;2023-04-03T09:49:42;17.24;59.43
28175;SHT30;59417;44.788;10.334;2023-04-03T09:52:34;17.49;59.46
28175;SHT30;59417;44.788;10.334;2023-04-03T09:55:27;17.58;57.83
28175;SHT30;59417;44.788;10.334;2023-04-03T09:57:56;17.78;56.27
28175;SHT30;59417;44.788;10.334;2023-04-03T10:00:27;17.71;54.44
28175;SHT30;59417;44.788;10.334;2023-04-03T10:02:57;17.84;54.08
28175;SHT30;59417;44.788;10.334;2023-04-03T10:05:31;17.74;55.06
28175;SHT30;59417;44.788;10.334;2023-04-03T10:10:43;18.01;57.17
28175;SHT30;59417;44.788;10.334;2023-04-03T10:13:15;18.05;54.13
28175;SHT30;59417;44.788;10.334;2023-04-03T10:16:01;18.01;54.44
28175;SHT30;59417;44.788;10.334;2023-04-03T10:18:42;17.90;53.60
28175;SHT30;59417;44.788;10.334;2023-04-03T10:21:19;18.16;54.18
28175;SHT30;59417;44.788;10.334;2023-04-03T10:23:51;18.30;54.00
28175;SHT30;59417;44.788;10.334;2023-04-03T10:31:34;18.48;52.65
28175;SHT30;59417;44.788;10.334;2023-04-03T10:45:24;17.69;52.66
28175;SHT30;59417;44.788;10.334;2023-04-03T10:55:45;18.01;53.62
28175;SHT30;59417;44.788;10.334;2023-04-03T10:58:34;17.88;53.93
28175;SHT30;59417;44.788;10.334;2023-04-03T11:01:08;17.82;54.10
28175;SHT30;59417;44.788;10.334;2023-04-03T11:03:39;17.78;55.20
28175;SHT30;59417;44.788;10.334;2023-04-03T11:06:09;17.70;56.12
28175;SHT30;59417;44.788;10.334;2023-04-03T11:08:41;17.81;56.49
28175;SHT30;59417;44.788;10.334;2023-04-03T11:11:13;18.04;56.73
28175;SHT30;59417;44.788;10.334;2023-04-03T11:13:45;18.35;56.46
28175;SHT30;59417;44.788;10.334;2023-04-03T11:16:24;18.52;54.48
28175;SHT30;59417;44.788;10.334;2023-04-03T11:19:01;18.62;53.05
28175;SHT30;59417;44.788;10.334;2023-04-03T11:21:39;18.93;53.74
28175;SHT30;59417;44.788;10.334;2023-04-03T11:24:16;19.10;52.37
28175;SHT30;59417;44.788;10.334;2023-04-03T11:26:47;19.24;52.35
28175;SHT30;59417;44.788;10.334;2023-04-03T11:29:39;19.03;50.44
28175;SHT30;59417;44.788;10.334;2023-04-03T11:34:49;19.04;48.64
28175;SHT30;59417;44.788;10.334;2023-04-03T11:37:41;19.01;48.20
28175;SHT30;59417;44.788;10.334;2023-04-03T11:42:45;19.18;48.42
28175;SHT30;59417;44.788;10.334;2023-04-03T11:58:31;19.21;46.41
28175;SHT30;59417;44.788;10.334;2023-04-03T12:01:03;19.55;46.34
28175;SHT30;59417;44.788;10.334;2023-04-03T12:16:19;20.12;43.09
28175;SHT30;59417;44.788;10.334;2023-04-03T12:21:15;20.36;42.57
28175;SHT30;59417;44.788;10.334;2023-04-03T12:35:17;19.41;43.97
28175;SHT30;59417;44.788;10.334;2023-04-03T12:38:23;19.57;44.13
28175;SHT30;59417;44.788;10.334;2023-04-03T12:41:04;19.35;43.86
28175;SHT30;59417;44.788;10.334;2023-04-03T12:46:24;19.55;43.53
28175;SHT30;59417;44.788;10.334;2023-04-03T12:48:57;19.73;43.04
28175;SHT30;59417;44.788;10.334;2023-04-03T12:51:40;19.93;43.18
28175;SHT30;59417;44.788;10.334;2023-04-03T12:54:35;19.63;42.67
28175;SHT30;59417;44.788;10.334;2023-04-03T12:57:11;19.58;43.33
28175;SHT30;59417;44.788;10.334;2023-04-03T12:59:37;19.65;44.04
28175;SHT30;59417;44.788;10.334;2023-04-03T13:02:15;19.78;43.51
28175;SHT30;59417;44.788;10.334;2023-04-03T13:04:43;19.82;42.60
28175;SHT30;59417;44.788;10.334;2023-04-03T13:07:25;19.96;43.17
28175;SHT30;59417;44.788;10.334;2023-04-03T13:10:00;20.06;42.35
28175;SHT30;59417;44.788;10.334;2023-04-03T13:15:23;20.16;43.28
28175;SHT30;59417;44.788;10.334;2023-04-03T13:17:50;20.27;43.22
28175;SHT30;59417;44.788;10.334;2023-04-03T13:23:05;19.96;44.46
28175;SHT30;59417;44.788;10.334;2023-04-03T13:25:35;19.63;45.81
28175;SHT30;59417;44.788;10.334;2023-04-03T13:28:05;19.79;46.45
28175;SHT30;59417;44.788;10.334;2023-04-03T13:30:35;19.92;46.47
28175;SHT30;59417;44.788;10.334;2023-04-03T13:33:19;20.13;45.57
28175;SHT30;59417;44.788;10.334;2023-04-03T13:35:46;20.23;45.43
28175;SHT30;59417;44.788;10.334;2023-04-03T13:41:05;20.00;46.96
28175;SHT30;59417;44.788;10.334;2023-04-03T13:43:46;19.61;48.42
28175;SHT30;59417;44.788;10.334;2023-04-03T13:48:39;19.18;49.33
28175;SHT30;59417;44.788;10.334;2023-04-03T13:51:18;19.14;48.87
28175;SHT30;59417;44.788;10.334;2023-04-03T13:56:23;19.07;47.75
28175;SHT30;59417;44.788;10.334;2023-04-03T14:01:55;18.59;47.84
28175;SHT30;59417;44.788;10.334;2023-04-03T14:04:26;18.36;47.80
28175;SHT30;59417;44.788;10.334;2023-04-03T14:06:53;18.51;47.61
28175;SHT30;59417;44.788;10.334;2023-04-03T14:09:20;18.66;47.44
28175;SHT30;59417;44.788;10.334;2023-04-03T14:11:50;18.41;46.56
28175;SHT30;59417;44.788;10.334;2023-04-03T14:14:30;18.25;46.79
28175;SHT30;59417;44.788;10.334;2023-04-03T14:16:59;18.46;47.41
28175;SHT30;59417;44.788;10.334;2023-04-03T14:19:29;18.70;47.30
28175;SHT30;59417;44.788;10.334;2023-04-03T14:21:55;19.00;47.23
28175;SHT30;59417;44.788;10.334;2023-04-03T14:24:23;19.01;46.63
28175;SHT30;59417;44.788;10.334;2023-04-03T14:26:51;18.86;46.86
28175;SHT30;59417;44.788;10.334;2023-04-03T14:29:18;18.73;47.04
28175;SHT30;59417;44.788;10.334;2023-04-03T14:31:46;18.59;47.91
28175;SHT30;59417;44.788;10.334;2023-04-03T14:34:13;18.32;48.11
28175;SHT30;59417;44.788;10.334;2023-04-03T14:36:40;18.42;47.77
28175;SHT30;59417;44.788;10.334;2023-04-03T14:39:08;18.56;47.29
28175;SHT30;59417;44.788;10.334;2023-04-03T14:41:36;18.79;47.29
28175;SHT30;59417;44.788;10.334;2023-04-03T14:44:01;18.88;46.63
28175;SHT30;59417;44.788;10.334;2023-04-03T14:46:31;18.81;45.30
28175;SHT30;59417;44.788;10.334;2023-04-03T14:48:58;18.87;46.64
28175;SHT30;59417;44.788;10.334;2023-04-03T14:51:24;18.88;46.62
28175;SHT30;59417;44.788;10.334;2023-04-03T14:53:51;18.87;46.10
28175;SHT30;59417;44.788;10.334;2023-04-03T14:56:18;18.94;46.29
28175;SHT30;59417;44.788;10.334;2023-04-03T14:58:44;19.12;45.82
28175;SHT30;59417;44.788;10.334;2023-04-03T15:01:13;19.20;43.73
28175;SHT30;59417;44.788;10.334;2023-04-03T15:03:39;19.14;43.25
28175;SHT30;59417;44.788;10.334;2023-04-03T15:06:05;18.91;42.01
28175;SHT30;59417;44.788;10.334;2023-04-03T15:08:31;18.94;41.75
28175;SHT30;59417;44.788;10.334;2023-04-03T15:10:57;19.00;40.30
28175;SHT30;59417;44.788;10.334;2023-04-03T15:13:24;19.04;40.08
28175;SHT30;59417;44.788;10.334;2023-04-03T15:15:51;18.94;38.71
28175;SHT30;59417;44.788;10.334;2023-04-03T15:18:22;18.94;38.90
28175;SHT30;59417;44.788;10.334;2023-04-03T15:20:49;19.03;38.74
28175;SHT30;59417;44.788;10.334;2023-04-03T15:23:16;18.87;37.68
28175;SHT30;59417;44.788;10.334;2023-04-03T15:25:46;18.83;37.27
28175;SHT30;59417;44.788;10.334;2023-04-03T15:30:52;18.76;35.90
28175;SHT30;59417;44.788;10.334;2023-04-03T15:33:18;18.56;35.02
28175;SHT30;59417;44.788;10.334;2023-04-03T15:35:44;18.46;36.01
28175;SHT30;59417;44.788;10.334;2023-04-03T15:38:10;18.63;36.81
28175;SHT30;59417;44.788;10.334;2023-04-03T15:40:36;18.77;36.25
28175;SHT30;59417;44.788;10.334;2023-04-03T15:43:02;18.79;35.48
28175;SHT30;59417;44.788;10.334;2023-04-03T15:45:29;18.87;34.15
28175;SHT30;59417;44.788;10.334;2023-04-03T15:47:56;18.81;34.43
28175;SHT30;59417;44.788;10.334;2023-04-03T15:50:22;18.74;33.80
28175;SHT30;59417;44.788;10.334;2023-04-03T15:52:50;18.74;34.32
28175;SHT30;59417;44.788;10.334;2023-04-03T15:55:24;18.84;34.35
28175;SHT30;59417;44.788;10.334;2023-04-03T15:57:50;18.81;34.14
28175;SHT30;59417;44.788;10.334;2023-04-03T16:00:16;18.79;33.98
28175;SHT30;59417;44.788;10.334;2023-04-03T16:02:46;18.76;34.40
28175;SHT30;59417;44.788;10.334;2023-04-03T16:05:15;18.77;34.07
28175;SHT30;59417;44.788;10.334;2023-04-03T16:07:46;18.67;34.05
28175;SHT30;59417;44.788;10.334;2023-04-03T16:10:13;18.60;34.33
28175;SHT30;59417;44.788;10.334;2023-04-03T16:12:39;18.55;34.40
28175;SHT30;59417;44.788;10.334;2023-04-03T16:15:06;18.59;34.80
28175;SHT30;59417;44.788;10.334;2023-04-03T16:17:33;18.67;34.65
28175;SHT30;59417;44.788;10.334;2023-04-03T16:19:59;18.73;34.30
28175;SHT30;59417;44.788;10.334;2023-04-03T16:22:27;18.76;34.15
28175;SHT30;59417;44.788;10.334;2023-04-03T16:24:53;18.59;34.02
28175;SHT30;59417;44.788;10.334;2023-04-03T16:27:20;18.62;34.05
28175;SHT30;59417;44.788;10.334;2023-04-03T16:29:45;18.64;34.39
28175;SHT30;59417;44.788;10.334;2023-04-03T16:32:11;18.64;34.49
28175;SHT30;59417;44.788;10.334;2023-04-03T16:34:38;18.63;34.79
28175;SHT30;59417;44.788;10.334;2023-04-03T16:37:06;18.70;34.61
28175;SHT30;59417;44.788;10.334;2023-04-03T16:39:34;18.70;34.35
28175;SHT30;59417;44.788;10.334;2023-04-03T16:42:00;18.77;34.58
28175;SHT30;59417;44.788;10.334;2023-04-03T16:44:26;18.76;34.86
28175;SHT30;59417;44.788;10.334;2023-04-03T16:46:52;18.73;34.99
28175;SHT30;59417;44.788;10.334;2023-04-03T16:49:18;18.67;35.33
28175;SHT30;59417;44.788;10.334;2023-04-03T16:51:43;18.56;34.90
28175;SHT30;59417;44.788;10.334;2023-04-03T16:54:10;18.48;35.48
28175;SHT30;59417;44.788;10.334;2023-04-03T16:56:38;18.49;35.36
28175;SHT30;59417;44.788;10.334;2023-04-03T16:59:03;18.39;35.28
28175;SHT30;59417;44.788;10.334;2023-04-03T17:01:29;18.46;35.32
28175;SHT30;59417;44.788;10.334;2023-04-03T17:03:55;18.43;34.81
28175;SHT30;59417;44.788;10.334;2023-04-03T17:06:21;18.18;34.86
28175;SHT30;59417;44.788;10.334;2023-04-03T17:08:49;18.09;34.72
28175;SHT30;59417;44.788;10.334;2023-04-03T17:11:26;17.85;34.59
28175;SHT30;59417;44.788;10.334;2023-04-03T17:13:53;17.70;34.97
28175;SHT30;59417;44.788;10.334;2023-04-03T17:16:19;17.61;35.33